createdAt,value
2022-11-16T00:01:56.671Z,77.95
2022-11-16T00:04:24.633Z,77.80
2022-11-16T00:06:52.426Z,77.61
2022-11-16T00:09:22.965Z,77.53
2022-11-16T00:11:56.543Z,77.22
2022-11-16T00:14:30.258Z,76.76
2022-11-16T00:16:58.978Z,76.77
2022-11-16T00:19:27.645Z,76.97
2022-11-16T00:21:59.120Z,76.83
2022-11-16T00:24:26.648Z,76.92
2022-11-16T00:26:55.691Z,76.76
2022-11-16T00:29:26.277Z,76.70
2022-11-16T00:31:54.286Z,76.68
2022-11-16T00:34:23.627Z,76.67
2022-11-16T00:36:51.529Z,76.60
2022-11-16T00:39:20.336Z,76.54
2022-11-16T00:41:49.173Z,76.22
2022-11-16T00:44:18.408Z,76.38
2022-11-16T00:46:46.354Z,76.42
2022-11-16T00:49:14.552Z,76.37
2022-11-16T00:51:42.361Z,76.31
2022-11-16T00:54:10.319Z,76.31
2022-11-16T00:56:39.764Z,76.38
2022-11-16T00:59:07.723Z,76.51
2022-11-16T01:01:35.590Z,76.60
2022-11-16T01:04:03.666Z,76.58
2022-11-16T01:06:31.399Z,76.58
2022-11-16T01:09:01.206Z,76.73
2022-11-16T01:11:47.516Z,76.90
2022-11-16T01:14:15.616Z,76.93
2022-11-16T01:16:44.470Z,76.90
2022-11-16T01:19:12.064Z,76.69
2022-11-16T01:21:39.889Z,76.92
2022-11-16T01:24:07.557Z,77.03
2022-11-16T01:26:35.140Z,77.04
2022-11-16T01:29:03.182Z,76.99
2022-11-16T01:31:32.647Z,77.01
2022-11-16T01:34:01.722Z,76.47
2022-11-16T01:36:30.150Z,76.17
2022-11-16T01:38:59.791Z,76.69
2022-11-16T01:41:29.688Z,76.97
2022-11-16T01:44:04.584Z,76.90
2022-11-16T01:46:33.804Z,76.67
2022-11-16T01:49:18.893Z,76.50
2022-11-16T01:51:54.168Z,76.23
2022-11-16T01:54:29.715Z,76.25
2022-11-16T01:57:05.483Z,75.98
2022-11-16T01:59:34.820Z,75.92
2022-11-16T02:02:03.382Z,76.04
2022-11-16T02:04:31.788Z,75.97
2022-11-16T02:07:17.541Z,76.03
2022-11-16T02:10:13.115Z,76.21
2022-11-16T02:12:58.695Z,76.22
2022-11-16T02:15:44.877Z,76.38
2022-11-16T02:18:39.072Z,76.60
2022-11-16T02:21:40.872Z,76.72
2022-11-16T02:24:43.479Z,76.76
2022-11-16T02:27:34.741Z,76.85
2022-11-16T02:30:04.913Z,76.99
2022-11-16T02:32:49.704Z,77.00
2022-11-16T02:35:25.179Z,77.01
2022-11-16T02:38:07.978Z,76.82
2022-11-16T02:40:39.887Z,76.60
2022-11-16T02:43:11.130Z,76.63
2022-11-16T02:45:43.784Z,76.70
2022-11-16T02:48:16.912Z,76.51
2022-11-16T02:50:47.384Z,76.33
2022-11-16T02:53:15.330Z,76.38
2022-11-16T02:55:44.531Z,76.52
2022-11-16T02:58:15.687Z,76.48
2022-11-16T03:01:07.249Z,76.55
2022-11-16T03:03:42.711Z,76.64
2022-11-16T03:06:24.532Z,76.90
2022-11-16T03:09:03.859Z,77.03
2022-11-16T03:11:54.123Z,77.25
2022-11-16T03:14:30.689Z,77.38
2022-11-16T03:17:00.331Z,77.58
2022-11-16T03:19:45.293Z,77.40
2022-11-16T03:22:18.970Z,77.11
2022-11-16T03:24:47.246Z,76.77
2022-11-16T03:27:26.584Z,76.58
2022-11-16T03:30:04.421Z,76.41
2022-11-16T03:32:46.493Z,76.05
2022-11-16T03:35:30.520Z,75.96
2022-11-16T03:38:01.787Z,75.97
2022-11-16T03:40:33.647Z,75.87
2022-11-16T03:43:04.160Z,75.96
2022-11-16T03:45:32.148Z,76.04
2022-11-16T03:48:00.526Z,76.05
2022-11-16T03:50:28.120Z,75.82
2022-11-16T03:52:55.667Z,75.63
2022-11-16T03:55:24.186Z,75.72
2022-11-16T03:57:51.882Z,76.06
2022-11-16T04:00:19.762Z,76.13
2022-11-16T04:02:47.531Z,76.14
2022-11-16T04:05:35.542Z,76.15
2022-11-16T04:08:21.555Z,76.20
2022-11-16T04:11:08.415Z,75.96
2022-11-16T04:13:54.795Z,75.80
2022-11-16T04:16:41.234Z,75.52
2022-11-16T04:19:28.168Z,75.72
2022-11-16T04:22:31.686Z,76.07
2022-11-16T04:25:11.015Z,76.36
2022-11-16T04:27:57.186Z,76.60
2022-11-16T04:30:35.322Z,76.90
2022-11-16T04:33:21.516Z,76.92
2022-11-16T04:36:09.549Z,76.92
2022-11-16T04:38:36.922Z,77.03
2022-11-16T04:41:04.675Z,77.21
2022-11-16T04:43:32.255Z,77.33
2022-11-16T04:46:18.422Z,77.46
2022-11-16T04:48:46.116Z,77.52
2022-11-16T04:51:13.582Z,77.50
2022-11-16T04:53:41.196Z,77.44
2022-11-16T04:56:11.973Z,77.17
2022-11-16T04:58:39.814Z,76.99
2022-11-16T05:01:08.549Z,76.83
2022-11-16T05:03:36.884Z,76.82
2022-11-16T05:06:06.289Z,76.76
2022-11-16T05:08:34.629Z,76.71
2022-11-16T05:11:03.987Z,76.72
2022-11-16T05:13:31.817Z,76.81
2022-11-16T05:15:59.381Z,76.72
2022-11-16T05:18:27.085Z,76.51
2022-11-16T05:21:01.088Z,76.54
2022-11-16T05:23:48.901Z,76.56
2022-11-16T05:26:18.205Z,76.43
2022-11-16T05:28:46.494Z,76.30
2022-11-16T05:31:14.413Z,76.32
2022-11-16T05:33:42.067Z,76.50
2022-11-16T05:36:10.393Z,76.82
2022-11-16T05:38:37.917Z,77.04
2022-11-16T05:41:06.439Z,77.12
2022-11-16T05:43:34.221Z,77.17
2022-11-16T05:46:03.648Z,77.33
2022-11-16T05:48:31.695Z,77.36
2022-11-16T05:51:00.488Z,77.52
2022-11-16T05:53:29.730Z,77.61
2022-11-16T05:55:58.045Z,77.63
2022-11-16T05:58:25.560Z,77.74
2022-11-16T06:00:53.929Z,77.68
2022-11-16T06:03:22.387Z,77.71
2022-11-16T06:05:52.186Z,77.87
2022-11-16T06:08:19.930Z,77.81
2022-11-16T06:10:49.218Z,77.84
2022-11-16T06:13:17.154Z,77.89
2022-11-16T06:15:52.157Z,77.68
2022-11-16T06:18:20.474Z,77.53
2022-11-16T06:20:49.217Z,77.55
2022-11-16T06:23:17.716Z,77.85
2022-11-16T06:25:45.399Z,78.10
2022-11-16T06:28:13.250Z,78.26
2022-11-16T06:30:41.002Z,78.28
2022-11-16T06:33:09.386Z,78.19
2022-11-16T06:35:37.507Z,78.04
2022-11-16T06:38:05.498Z,77.88
2022-11-16T06:40:33.466Z,77.47
2022-11-16T06:43:02.049Z,77.38
2022-11-16T06:45:29.701Z,77.23
2022-11-16T06:47:58.135Z,77.31
2022-11-16T06:50:25.665Z,77.30
2022-11-16T06:52:53.561Z,77.34
2022-11-16T06:55:21.716Z,77.49
2022-11-16T06:57:49.281Z,77.49
2022-11-16T07:00:18.199Z,77.46
2022-11-16T07:02:46.376Z,77.51
2022-11-16T07:05:15.882Z,77.39
2022-11-16T07:07:43.476Z,77.53
2022-11-16T07:10:11.569Z,77.82
2022-11-16T07:12:39.270Z,77.87
2022-11-16T07:15:08.278Z,78.16
2022-11-16T07:17:36.907Z,78.75
2022-11-16T07:20:05.966Z,78.52
2022-11-16T07:22:33.994Z,78.70
2022-11-16T07:25:01.827Z,78.73
2022-11-16T07:27:29.453Z,78.80
2022-11-16T07:29:57.101Z,78.91
2022-11-16T07:32:26.757Z,79.21
2022-11-16T07:34:59.547Z,79.40
2022-11-16T07:37:28.072Z,79.34
2022-11-16T07:39:55.794Z,79.16
2022-11-16T07:42:23.700Z,78.93
2022-11-16T07:44:53.343Z,79.03
2022-11-16T07:47:20.729Z,79.13
2022-11-16T07:49:48.782Z,79.56
2022-11-16T07:52:18.384Z,79.72
2022-11-16T07:55:01.099Z,79.65
2022-11-16T07:57:29.127Z,79.72
2022-11-16T07:59:58.512Z,79.79
2022-11-16T08:02:26.742Z,79.74
2022-11-16T08:04:54.647Z,79.49
2022-11-16T08:07:24.330Z,79.35
2022-11-16T08:09:53.943Z,79.37
2022-11-16T08:12:22.279Z,79.28
2022-11-16T08:14:50.391Z,79.32
2022-11-16T08:17:18.346Z,79.39
2022-11-16T08:19:45.739Z,79.40
2022-11-16T08:22:15.365Z,79.33
2022-11-16T08:24:42.995Z,79.31
2022-11-16T08:27:10.626Z,79.39
2022-11-16T08:29:38.341Z,79.57
2022-11-16T08:32:07.335Z,79.34
2022-11-16T08:34:35.361Z,79.41
2022-11-16T08:37:04.411Z,79.24
2022-11-16T08:39:40.073Z,79.17
2022-11-16T08:42:07.944Z,79.11
2022-11-16T08:44:35.935Z,78.90
2022-11-16T08:47:05.462Z,78.81
2022-11-16T08:49:38.025Z,78.70
2022-11-16T08:52:05.939Z,78.66
2022-11-16T08:54:34.022Z,78.50
2022-11-16T08:57:01.756Z,78.58
2022-11-16T08:59:30.383Z,78.57
2022-11-16T09:02:00.116Z,78.73
2022-11-16T09:04:31.503Z,79.01
2022-11-16T09:06:57.720Z,79.32
2022-11-16T09:09:25.821Z,78.86
2022-11-16T09:11:55.130Z,78.88
2022-11-16T09:14:22.795Z,78.85
2022-11-16T09:16:50.480Z,78.15
2022-11-16T09:19:18.414Z,78.67
2022-11-16T09:21:45.881Z,78.95
2022-11-16T09:24:13.389Z,79.01
2022-11-16T09:26:41.127Z,78.84
2022-11-16T09:29:14.729Z,78.84
2022-11-16T09:31:42.177Z,79.00
2022-11-16T09:34:09.909Z,79.14
2022-11-16T09:36:37.346Z,79.08
2022-11-16T09:42:07.878Z,79.11
2022-11-16T09:44:55.720Z,78.88
2022-11-16T09:47:58.967Z,79.01
2022-11-16T09:50:44.055Z,79.29
2022-11-16T09:53:35.451Z,79.46
2022-11-16T09:56:08.561Z,79.55
2022-11-16T09:58:44.550Z,79.27
2022-11-16T10:01:44.241Z,79.04
2022-11-16T10:04:23.420Z,78.84
2022-11-16T10:07:16.900Z,78.51
2022-11-16T10:09:46.307Z,78.31
2022-11-16T10:12:25.156Z,78.27
2022-11-16T10:15:16.473Z,78.42
2022-11-16T10:18:04.352Z,78.30
2022-11-16T10:20:51.914Z,78.48
2022-11-16T10:23:53.722Z,78.76
2022-11-16T10:26:51.223Z,77.66
2022-11-16T10:29:42.672Z,77.42
2022-11-16T10:32:28.409Z,76.93
2022-11-16T10:35:13.276Z,77.40
2022-11-16T10:37:50.372Z,77.62
2022-11-16T10:40:29.109Z,77.63
2022-11-16T10:43:17.422Z,77.70
2022-11-16T10:45:59.744Z,77.28
2022-11-16T10:48:59.335Z,77.07
2022-11-16T10:51:27.123Z,76.78
2022-11-16T10:53:55.571Z,77.03
2022-11-16T10:56:34.799Z,77.28
2022-11-16T10:59:09.267Z,77.44
2022-11-16T11:01:40.933Z,77.54
2022-11-16T11:04:30.791Z,77.51
2022-11-16T11:07:23.912Z,77.70
2022-11-16T11:09:55.376Z,77.63
2022-11-16T11:12:37.472Z,77.65
2022-11-16T11:15:25.843Z,77.90
2022-11-16T11:18:16.964Z,78.06
2022-11-16T11:20:52.825Z,78.51
2022-11-16T11:23:24.715Z,78.59
2022-11-16T11:25:59.090Z,78.48
2022-11-16T11:28:38.732Z,78.62
2022-11-16T11:31:24.964Z,78.85
2022-11-16T11:33:59.520Z,79.00
2022-11-16T11:36:35.581Z,79.12
2022-11-16T11:39:18.067Z,79.32
2022-11-16T11:42:02.385Z,79.38
2022-11-16T11:44:58.390Z,79.17
2022-11-16T11:48:00.264Z,78.78
2022-11-16T11:50:51.821Z,78.69
2022-11-16T11:53:51.802Z,78.58
2022-11-16T11:56:19.675Z,78.58
2022-11-16T11:58:48.946Z,78.78
2022-11-16T12:01:43.448Z,78.82
2022-11-16T12:04:59.387Z,79.11
2022-11-16T12:07:38.474Z,79.34
2022-11-16T12:10:41.770Z,79.08
2022-11-16T12:13:23.944Z,78.96
2022-11-16T12:16:11.464Z,78.76
2022-11-16T12:19:18.170Z,78.74
2022-11-16T12:21:57.210Z,78.91
2022-11-16T12:24:48.351Z,78.84
2022-11-16T12:27:30.340Z,78.90
2022-11-16T12:30:17.404Z,78.93
2022-11-16T12:33:22.970Z,79.09
2022-11-16T12:36:16.719Z,79.05
2022-11-16T12:39:12.767Z,79.12
2022-11-16T12:41:54.730Z,79.25
2022-11-16T12:44:47.336Z,79.03
2022-11-16T12:47:43.400Z,78.91
2022-11-16T12:51:06.525Z,78.87
2022-11-16T12:54:10.376Z,79.00
2022-11-16T12:57:10.455Z,79.16
2022-11-16T13:00:01.432Z,78.58
2022-11-16T13:02:58.245Z,78.49
2022-11-16T13:05:31.214Z,78.48
2022-11-16T13:08:07.369Z,78.48
2022-11-16T13:10:41.191Z,78.37
2022-11-16T13:15:48.055Z,78.11
2022-11-16T13:18:19.580Z,78.42
2022-11-16T13:21:04.447Z,78.71
2022-11-16T13:23:52.536Z,78.67
2022-11-16T13:26:28.553Z,78.62
2022-11-16T13:29:13.633Z,78.71
2022-11-16T13:32:13.939Z,78.76
2022-11-16T13:34:42.063Z,78.91
2022-11-16T13:37:41.206Z,78.90
2022-11-16T13:43:12.806Z,79.03
2022-11-16T13:45:57.612Z,79.26
2022-11-16T13:48:38.098Z,79.29
2022-11-16T13:51:11.103Z,79.37
2022-11-16T13:54:43.347Z,79.36
2022-11-16T13:56:28.345Z,79.45
2022-11-16T13:58:54.697Z,79.63
2022-11-16T14:01:23.415Z,79.54
2022-11-16T14:03:52.626Z,79.50
2022-11-16T14:06:25.818Z,79.66
2022-11-16T14:08:58.941Z,79.69
2022-11-16T14:11:36.945Z,79.61
2022-11-16T14:14:10.634Z,79.68
2022-11-16T14:16:50.076Z,79.57
2022-11-16T14:19:49.352Z,79.50
2022-11-16T14:22:39.236Z,79.20
2022-11-16T14:25:14.902Z,78.87
2022-11-16T14:28:03.283Z,78.85
2022-11-16T14:30:35.649Z,78.80
2022-11-16T14:33:03.444Z,78.75
2022-11-16T14:35:38.854Z,78.83
2022-11-16T14:38:27.595Z,78.97
2022-11-16T14:40:59.668Z,79.10
2022-11-16T14:43:43.281Z,79.35
2022-11-16T14:46:27.995Z,79.53
2022-11-16T14:48:58.279Z,79.69
2022-11-16T14:51:35.679Z,79.71
2022-11-16T14:54:23.355Z,79.83
2022-11-16T14:57:04.500Z,79.92
2022-11-16T14:59:32.916Z,79.93
2022-11-16T15:02:06.273Z,80.08
2022-11-16T15:04:33.991Z,80.21
2022-11-16T15:07:03.975Z,80.20
2022-11-16T15:09:38.775Z,80.21
2022-11-16T15:12:34.831Z,80.17
2022-11-16T15:15:16.490Z,80.29
2022-11-16T15:17:48.781Z,80.31
2022-11-16T15:20:23.356Z,80.38
2022-11-16T15:22:57.137Z,80.37
2022-11-16T15:25:54.287Z,80.59
2022-11-16T15:28:28.548Z,80.48
2022-11-16T15:31:03.952Z,80.34
2022-11-16T15:33:40.099Z,80.20
2022-11-16T15:36:31.517Z,80.27
2022-11-16T15:39:02.388Z,80.07
2022-11-16T15:41:30.095Z,79.97
2022-11-16T15:44:16.361Z,80.02
2022-11-16T15:46:33.611Z,80.08
2022-11-16T15:49:01.964Z,80.16
2022-11-16T15:51:31.172Z,80.21
2022-11-16T15:54:27.963Z,80.19
2022-11-16T15:57:00.611Z,80.07
2022-11-16T15:59:32.209Z,80.06
2022-11-16T16:01:59.804Z,80.14
2022-11-16T16:04:28.538Z,80.15
2022-11-16T16:06:59.149Z,80.15
2022-11-16T16:09:40.004Z,80.22
2022-11-16T16:12:26.439Z,80.35
2022-11-16T16:14:59.664Z,80.53
2022-11-16T16:17:30.826Z,80.67
2022-11-16T16:20:01.661Z,80.65
2022-11-16T16:22:38.616Z,80.67
2022-11-16T16:25:25.609Z,80.69
2022-11-16T16:27:53.049Z,80.84
2022-11-16T16:30:21.185Z,81.15
2022-11-16T16:32:50.976Z,81.21
2022-11-16T16:35:24.532Z,81.28
2022-11-16T16:37:58.563Z,81.40
2022-11-16T16:40:29.060Z,81.10
2022-11-16T16:42:57.364Z,81.02
2022-11-16T16:45:39.389Z,80.84
2022-11-16T16:48:12.084Z,80.90
2022-11-16T16:50:40.451Z,80.58
2022-11-16T16:53:12.253Z,80.50
2022-11-16T16:55:40.853Z,80.56
2022-11-16T16:58:11.908Z,80.52
2022-11-16T17:00:40.671Z,80.56
2022-11-16T17:03:08.307Z,80.76
2022-11-16T17:05:36.783Z,80.65
2022-11-16T17:08:04.657Z,80.63
2022-11-16T17:10:32.127Z,80.56
2022-11-16T17:13:02.749Z,80.46
2022-11-16T17:15:30.412Z,80.47
2022-11-16T17:17:59.514Z,80.43
2022-11-16T17:20:27.780Z,80.37
2022-11-16T17:22:55.597Z,80.29
2022-11-16T17:25:23.250Z,80.07
2022-11-16T17:27:51.593Z,79.87
2022-11-16T17:30:19.206Z,79.83
2022-11-16T17:32:46.655Z,79.81
2022-11-16T17:35:14.263Z,79.78
2022-11-16T17:37:41.971Z,79.82
2022-11-16T17:40:11.021Z,79.74
2022-11-16T17:42:38.731Z,79.59
2022-11-16T17:45:07.442Z,79.63
2022-11-16T17:47:35.093Z,79.56
2022-11-16T17:50:03.781Z,79.58
2022-11-16T17:52:31.362Z,79.71
2022-11-16T17:54:58.752Z,79.79
2022-11-16T17:57:26.296Z,79.76
2022-11-16T17:59:53.783Z,79.48
2022-11-16T18:02:21.268Z,79.21
2022-11-16T18:04:51.271Z,79.01
2022-11-16T18:07:18.361Z,78.83
2022-11-16T18:09:46.057Z,78.91
2022-11-16T18:12:13.466Z,78.87
2022-11-16T18:14:42.458Z,78.88
2022-11-16T18:17:09.937Z,78.75
2022-11-16T18:19:37.422Z,78.67
2022-11-16T18:22:04.882Z,78.79
2022-11-16T18:24:32.816Z,78.88
2022-11-16T18:27:00.485Z,79.04
2022-11-16T18:29:28.097Z,79.06
2022-11-16T18:31:56.298Z,79.02
2022-11-16T18:34:23.824Z,78.99
2022-11-16T18:36:51.620Z,79.00
2022-11-16T18:39:18.963Z,79.08
2022-11-16T18:41:54.762Z,79.06
2022-11-16T18:44:19.971Z,79.15
2022-11-16T18:46:47.414Z,79.24
2022-11-16T18:49:15.357Z,79.27
2022-11-16T18:51:42.717Z,79.30
2022-11-16T18:54:10.212Z,79.33
2022-11-16T18:56:37.919Z,79.39
2022-11-16T18:59:05.377Z,79.45
2022-11-16T19:01:33.122Z,79.60
2022-11-16T19:04:01.188Z,79.62
2022-11-16T19:06:33.545Z,79.90
2022-11-16T19:09:03.024Z,80.00
2022-11-16T19:11:30.639Z,79.75
2022-11-16T19:14:00.261Z,79.61
2022-11-16T19:16:28.157Z,79.47
2022-11-16T19:18:56.115Z,79.29
2022-11-16T19:21:24.068Z,79.26
2022-11-16T19:23:54.963Z,78.98
2022-11-16T19:26:26.279Z,78.66
2022-11-16T19:28:54.420Z,78.32
2022-11-16T19:31:28.593Z,78.04
2022-11-16T19:34:02.296Z,78.02
2022-11-16T19:36:30.426Z,78.10
2022-11-16T19:38:58.360Z,78.37
2022-11-16T19:41:27.007Z,78.43
2022-11-16T19:43:59.255Z,78.34
2022-11-16T19:46:29.615Z,78.27
2022-11-16T19:48:58.539Z,78.30
2022-11-16T19:51:32.238Z,78.48
2022-11-16T19:54:00.393Z,78.57
2022-11-16T19:56:28.532Z,78.79
2022-11-16T19:58:56.804Z,78.83
2022-11-16T20:01:28.299Z,78.92
2022-11-16T20:03:59.186Z,79.03
2022-11-16T20:06:35.910Z,79.09
2022-11-16T20:09:08.348Z,79.19
2022-11-16T20:11:38.231Z,79.25
2022-11-16T20:14:09.376Z,79.34
2022-11-16T20:16:40.133Z,79.18
2022-11-16T20:19:09.567Z,79.13
2022-11-16T20:21:42.872Z,79.15
2022-11-16T20:24:14.845Z,79.30
2022-11-16T20:26:46.173Z,79.41
2022-11-16T20:29:16.206Z,79.35
2022-11-16T20:31:45.613Z,79.83
2022-11-16T20:34:16.084Z,79.79
2022-11-16T20:36:46.196Z,79.70
2022-11-16T20:39:17.808Z,79.62
2022-11-16T20:41:46.159Z,79.43
2022-11-16T20:44:20.431Z,79.27
2022-11-16T20:46:51.215Z,79.19
2022-11-16T20:49:18.942Z,79.20
2022-11-16T20:51:47.856Z,79.21
2022-11-16T20:54:15.584Z,79.20
2022-11-16T20:56:44.058Z,79.19
2022-11-16T20:59:11.723Z,79.22
2022-11-16T21:01:41.192Z,79.27
2022-11-16T21:04:10.348Z,79.20
2022-11-16T21:06:37.662Z,79.12
2022-11-16T21:09:05.256Z,79.05
2022-11-16T21:11:35.415Z,79.06
2022-11-16T21:14:18.049Z,79.10
2022-11-16T21:16:45.545Z,79.15
2022-11-16T21:19:13.225Z,79.24
2022-11-16T21:21:41.437Z,79.26
2022-11-16T21:24:09.628Z,79.35
2022-11-16T21:26:37.676Z,79.37
2022-11-16T21:29:06.110Z,79.43
2022-11-16T21:31:35.936Z,79.48
2022-11-16T21:34:05.363Z,79.48
2022-11-16T21:36:33.667Z,79.64
2022-11-16T21:39:01.488Z,79.72
2022-11-16T21:41:29.060Z,79.64
2022-11-16T21:43:56.794Z,79.66
2022-11-16T21:46:26.986Z,79.74
2022-11-16T21:48:55.747Z,79.72
2022-11-16T21:51:25.690Z,79.69
2022-11-16T21:53:53.676Z,79.52
2022-11-16T21:56:24.253Z,79.36
2022-11-16T21:58:53.591Z,79.29
2022-11-16T22:01:22.845Z,79.18
2022-11-16T22:03:52.956Z,79.13
2022-11-16T22:06:39.216Z,79.05
2022-11-16T22:09:06.706Z,79.04
2022-11-16T22:11:34.228Z,79.01
2022-11-16T22:14:01.699Z,79.01
2022-11-16T22:16:30.136Z,79.04
2022-11-16T22:18:57.871Z,79.13
2022-11-16T22:21:25.425Z,79.26
2022-11-16T22:23:53.803Z,79.22
2022-11-16T22:26:21.215Z,79.22
2022-11-16T22:28:48.925Z,79.33
2022-11-16T22:31:16.611Z,79.33
2022-11-16T22:33:44.039Z,79.33
2022-11-16T22:36:12.838Z,79.38
2022-11-16T22:38:40.518Z,79.44
2022-11-16T22:41:08.846Z,79.54
2022-11-16T22:43:37.084Z,79.66
2022-11-16T22:46:06.205Z,79.78
2022-11-16T22:48:37.260Z,79.82
2022-11-16T22:51:09.384Z,79.84
2022-11-16T22:53:37.196Z,79.95
2022-11-16T22:56:09.906Z,80.09
2022-11-16T22:58:38.621Z,80.31
2022-11-16T23:01:08.576Z,80.37
2022-11-16T23:03:37.558Z,80.42
2022-11-16T23:06:06.685Z,80.35
2022-11-16T23:08:35.954Z,80.32
2022-11-16T23:11:37.833Z,80.27
2022-11-16T23:14:27.877Z,80.25
2022-11-16T23:16:55.856Z,80.08
2022-11-16T23:19:42.047Z,79.99
2022-11-16T23:22:34.814Z,80.03
2022-11-16T23:25:22.157Z,79.99
2022-11-16T23:27:58.207Z,79.80
2022-11-16T23:30:26.040Z,79.72
2022-11-16T23:32:53.997Z,79.76
2022-11-16T23:35:22.426Z,79.83
2022-11-16T23:37:59.041Z,79.81
2022-11-16T23:40:37.063Z,79.88
2022-11-16T23:43:23.975Z,79.97
2022-11-16T23:45:51.547Z,80.17
2022-11-16T23:48:19.232Z,80.27
2022-11-16T23:50:47.642Z,80.34
2022-11-16T23:53:15.044Z,80.45
2022-11-16T23:55:42.816Z,80.59
2022-11-16T23:58:13.877Z,80.61
